Yuho Maru No.3 — JD2491 — position and weather

sailwx.info

Track history (hours):
 
Tides and Currents Weather Stations Pressure Air Temp Water Temp Dewpoint Dewpoint Depression Visibility Wind Speed Wind Dir Waves Ship Positions

Yuho Maru No.3

Last reported at 2015-Apr-24 10:19 UTC. Time now 2015-Apr-26 02:57 UTC.
Position N 34°41' E 134°46'.

Length 65 m; draft 4.2 m.

Type: Tanker. MMSI: 431000336.

Date/timePositionNaut miles runAvg speedWind from/ knotsBaromVisibWave heightAir tempDewpointWater temp
2015-Apr-24 10:19N 34°41' E 134°46'1311.0
2015-Apr-24 09:10N 34°38' E 135°01'610.2
2015-Apr-24 08:33N 34°35' E 135°08'1212.1
2015-Apr-24 07:33N 34°34' E 135°22'3 2.4
2015-Apr-24 06:21N 34°33' E 135°26'0 0.0
2015-Apr-24 05:33N 34°33' E 135°26'0 0.0
2015-Apr-24 04:28N 34°33' E 135°26'0 0.0
2015-Apr-24 02:34N 34°33' E 135°26'0 0.0
2015-Apr-24 01:24N 34°33' E 135°26'0 0.0
2015-Apr-24 00:34N 34°33' E 135°26'2 1.9
2015-Apr-23 23:32N 34°33' E 135°23'3 3.2
2015-Apr-23 22:33N 34°33' E 135°19'0 0.0
2015-Apr-23 21:34N 34°33' E 135°19'0 0.0
2015-Apr-23 20:34N 34°33' E 135°19'0 0.0
2015-Apr-23 19:34N 34°33' E 135°19'0 0.0
2015-Apr-23 18:33N 34°33' E 135°19'0 0.0
2015-Apr-23 17:34N 34°33' E 135°19'0 0.0
2015-Apr-23 16:28N 34°33' E 135°19'4 4.9
2015-Apr-23 15:33N 34°34' E 135°14'1110.6
2015-Apr-23 14:33N 34°37' E 135°02'9 8.5
2015-Apr-23 13:30N 34°34' E 134°51'  
2015-Apr-21 06:26N 34°05' E 134°47'244 5.1
2015-Apr-19 06:25N 35°04' E 139°35'1011.8
2015-Apr-19 05:33N 35°10' E 139°44'10 9.9
2015-Apr-19 04:33N 35°20' E 139°42'1110.8
2015-Apr-19 03:33N 35°29' E 139°50'9 8.6
2015-Apr-19 02:33N 35°28' E 140°01'0 0.0
2015-Apr-19 01:33N 35°28' E 140°01'0 0.0
2015-Apr-19 00:33N 35°28' E 140°01'0 0.0
2015-Apr-18 23:33N 35°28' E 140°01'0 0.2
2015-Apr-18 22:33N 35°29' E 140°01'9 8.7
2015-Apr-18 21:33N 35°36' E 140°06'0 0.0
2015-Apr-18 20:33N 35°36' E 140°06'0 0.0
2015-Apr-18 19:33N 35°36' E 140°06'0 0.0
2015-Apr-18 18:33N 35°36' E 140°06'0 0.0
2015-Apr-18 17:33N 35°36' E 140°06'0 0.0
2015-Apr-18 16:33N 35°36' E 140°06'0 0.0
2015-Apr-18 15:33N 35°36' E 140°06'0 0.0
2015-Apr-18 14:33N 35°36' E 140°06'0 0.0
2015-Apr-18 13:33N 35°36' E 140°06'0 0.0
2015-Apr-18 12:33N 35°36' E 140°06'0 0.0
2015-Apr-18 11:33N 35°36' E 140°06'0 0.0
2015-Apr-18 10:33N 35°36' E 140°06'0 0.0
2015-Apr-18 09:33N 35°36' E 140°06'0 0.0
2015-Apr-18 08:33N 35°36' E 140°06'0 0.0
2015-Apr-18 07:33N 35°36' E 140°06'0 0.0
2015-Apr-18 06:33N 35°36' E 140°06'1 0.8
2015-Apr-18 05:33N 35°35' E 140°06'1312.9
2015-Apr-18 04:33N 35°36' E 139°50'1 1.2
2015-Apr-18 03:33N 35°35' E 139°51'6 5.8
2015-Apr-18 02:34N 35°31' E 139°46'0 0.0
2015-Apr-18 01:34N 35°31' E 139°46'0 0.0
2015-Apr-18 00:34N 35°31' E 139°46'0 0.0
2015-Apr-17 23:33N 35°31' E 139°46'0 0.1
2015-Apr-17 22:33N 35°31' E 139°46'4 4.1
2015-Apr-17 21:33N 35°29' E 139°42'0 0.0
2015-Apr-17 20:33N 35°29' E 139°42'0 0.0
2015-Apr-17 19:34N 35°29' E 139°42'0 0.0
2015-Apr-17 18:33N 35°29' E 139°42'0 0.0
2015-Apr-17 17:33N 35°29' E 139°42'0 0.0
2015-Apr-17 16:33N 35°29' E 139°42'0 0.0
2015-Apr-17 15:33N 35°29' E 139°42'0 0.0
2015-Apr-17 14:33N 35°29' E 139°42'0 0.0
2015-Apr-17 13:33N 35°29' E 139°42'0 0.0
2015-Apr-17 12:33N 35°29' E 139°42'0 0.0
2015-Apr-17 11:33N 35°29' E 139°42'0 0.0
2015-Apr-17 10:33N 35°29' E 139°42'0 0.0
2015-Apr-17 09:34N 35°29' E 139°42'0 0.0
2015-Apr-17 08:34N 35°29' E 139°42'0 0.0
2015-Apr-17 07:33N 35°29' E 139°42'0 0.0
2015-Apr-17 06:33N 35°29' E 139°42'0 0.0
2015-Apr-17 05:34N 35°29' E 139°42'0 0.0
2015-Apr-17 04:33N 35°29' E 139°42'0 0.0
2015-Apr-17 03:34N 35°29' E 139°42'0 0.0
2015-Apr-17 02:32N 35°29' E 139°42'0 0.0
2015-Apr-17 01:33N 35°29' E 139°42'2 2.5
2015-Apr-17 00:34N 35°27' E 139°43'8 8.4
2015-Apr-16 23:34N 35°18' E 139°44'9 9.3
2015-Apr-16 22:33N 35°09' E 139°46'1010.1
2015-Apr-16 21:33N 35°01' E 139°38'  
Track history (hours):
 
Tides and Currents Weather Stations Pressure Air Temp Water Temp Dewpoint Dewpoint Depression Visibility Wind Speed Wind Dir Waves Ship Positions

Yuho Maru No.3

Last reported at 2015-Apr-24 10:19 UTC. Time now 2015-Apr-26 02:57 UTC.
Position N 34°41' E 134°46'.

Length 65 m; draft 4.2 m.

Type: Tanker. MMSI: 431000336.

Date/timePositionNaut miles runAvg speedWind from/ knotsBaromVisibWave heightAir tempDewpointWater temp
2015-Apr-24 10:19N 34°41' E 134°46'1311.0
2015-Apr-24 09:10N 34°38' E 135°01'610.2
2015-Apr-24 08:33N 34°35' E 135°08'1212.1
2015-Apr-24 07:33N 34°34' E 135°22'3 2.4
2015-Apr-24 06:21N 34°33' E 135°26'0 0.0
2015-Apr-24 05:33N 34°33' E 135°26'0 0.0
2015-Apr-24 04:28N 34°33' E 135°26'0 0.0
2015-Apr-24 02:34N 34°33' E 135°26'0 0.0
2015-Apr-24 01:24N 34°33' E 135°26'0 0.0
2015-Apr-24 00:34N 34°33' E 135°26'2 1.9
2015-Apr-23 23:32N 34°33' E 135°23'3 3.2
2015-Apr-23 22:33N 34°33' E 135°19'0 0.0
2015-Apr-23 21:34N 34°33' E 135°19'0 0.0
2015-Apr-23 20:34N 34°33' E 135°19'0 0.0
2015-Apr-23 19:34N 34°33' E 135°19'0 0.0
2015-Apr-23 18:33N 34°33' E 135°19'0 0.0
2015-Apr-23 17:34N 34°33' E 135°19'0 0.0
2015-Apr-23 16:28N 34°33' E 135°19'4 4.9
2015-Apr-23 15:33N 34°34' E 135°14'1110.6
2015-Apr-23 14:33N 34°37' E 135°02'9 8.5
2015-Apr-23 13:30N 34°34' E 134°51'  
2015-Apr-21 06:26N 34°05' E 134°47'244 5.1
2015-Apr-19 06:25N 35°04' E 139°35'1011.8
2015-Apr-19 05:33N 35°10' E 139°44'10 9.9
2015-Apr-19 04:33N 35°20' E 139°42'1110.8
2015-Apr-19 03:33N 35°29' E 139°50'9 8.6
2015-Apr-19 02:33N 35°28' E 140°01'0 0.0
2015-Apr-19 01:33N 35°28' E 140°01'0 0.0
2015-Apr-19 00:33N 35°28' E 140°01'0 0.0
2015-Apr-18 23:33N 35°28' E 140°01'0 0.2
2015-Apr-18 22:33N 35°29' E 140°01'9 8.7
2015-Apr-18 21:33N 35°36' E 140°06'0 0.0
2015-Apr-18 20:33N 35°36' E 140°06'0 0.0
2015-Apr-18 19:33N 35°36' E 140°06'0 0.0
2015-Apr-18 18:33N 35°36' E 140°06'0 0.0
2015-Apr-18 17:33N 35°36' E 140°06'0 0.0
2015-Apr-18 16:33N 35°36' E 140°06'0 0.0
2015-Apr-18 15:33N 35°36' E 140°06'0 0.0
2015-Apr-18 14:33N 35°36' E 140°06'0 0.0
2015-Apr-18 13:33N 35°36' E 140°06'0 0.0
2015-Apr-18 12:33N 35°36' E 140°06'0 0.0
2015-Apr-18 11:33N 35°36' E 140°06'0 0.0
2015-Apr-18 10:33N 35°36' E 140°06'0 0.0
2015-Apr-18 09:33N 35°36' E 140°06'0 0.0
2015-Apr-18 08:33N 35°36' E 140°06'0 0.0
2015-Apr-18 07:33N 35°36' E 140°06'0 0.0
2015-Apr-18 06:33N 35°36' E 140°06'1 0.8
2015-Apr-18 05:33N 35°35' E 140°06'1312.9
2015-Apr-18 04:33N 35°36' E 139°50'1 1.2
2015-Apr-18 03:33N 35°35' E 139°51'6 5.8
2015-Apr-18 02:34N 35°31' E 139°46'0 0.0
2015-Apr-18 01:34N 35°31' E 139°46'0 0.0
2015-Apr-18 00:34N 35°31' E 139°46'0 0.0
2015-Apr-17 23:33N 35°31' E 139°46'0 0.1
2015-Apr-17 22:33N 35°31' E 139°46'4 4.1
2015-Apr-17 21:33N 35°29' E 139°42'0 0.0
2015-Apr-17 20:33N 35°29' E 139°42'0 0.0
2015-Apr-17 19:34N 35°29' E 139°42'0 0.0
2015-Apr-17 18:33N 35°29' E 139°42'0 0.0
2015-Apr-17 17:33N 35°29' E 139°42'0 0.0
2015-Apr-17 16:33N 35°29' E 139°42'0 0.0
2015-Apr-17 15:33N 35°29' E 139°42'0 0.0
2015-Apr-17 14:33N 35°29' E 139°42'0 0.0
2015-Apr-17 13:33N 35°29' E 139°42'0 0.0
2015-Apr-17 12:33N 35°29' E 139°42'0 0.0
2015-Apr-17 11:33N 35°29' E 139°42'0 0.0
2015-Apr-17 10:33N 35°29' E 139°42'0 0.0
2015-Apr-17 09:34N 35°29' E 139°42'0 0.0
2015-Apr-17 08:34N 35°29' E 139°42'0 0.0
2015-Apr-17 07:33N 35°29' E 139°42'0 0.0
2015-Apr-17 06:33N 35°29' E 139°42'0 0.0
2015-Apr-17 05:34N 35°29' E 139°42'0 0.0
2015-Apr-17 04:33N 35°29' E 139°42'0 0.0
2015-Apr-17 03:34N 35°29' E 139°42'0 0.0
2015-Apr-17 02:32N 35°29' E 139°42'0 0.0
2015-Apr-17 01:33N 35°29' E 139°42'2 2.5
2015-Apr-17 00:34N 35°27' E 139°43'8 8.4
2015-Apr-16 23:34N 35°18' E 139°44'9 9.3
2015-Apr-16 22:33N 35°09' E 139°46'1010.1
2015-Apr-16 21:33N 35°01' E 139°38'  

Dump ship's entire track history